^^
Datos históricos de la estación: Murcia-Puente Tocinos
Diario Informe para Mayo 11, 2022 Unidades:  Ingés    Métrico   Ambas
Diario Semanal Mensual Anual
  Máxima: Mínima: Promedio:
Temperatura: 79.7 °F 57.6 °F 68.2 °F
Punto de rocio: 57.4 °F 47.5 °F 51.4 °F
Humedad: 79% 34% 58%
Velocidad viento: 9.7mph 0mph 4.1mph
Racha viento: 18.5mph - -
Viento- - ESE
Presión: 30.2 in 30.1 in -
Precipitación: 0 in    
 
 
Tabla de datos para Mayo 11, 2022
Hora Temperatura Punto de rocio Presión Viento Velocidad viento Racha viento Humedad Intensidad lluvia(por hora) Nubes
00:04 64 °F 52 °F 30.2 in NE 3.5 mph 5.2 mph 64.9% 0 in
00:09 63.9 °F 52 °F 30.2 in NE 3.6 mph 4.6 mph 65% 0 in
00:14 63.7 °F 51.8 °F 30.2 in NNE 3 mph 6.2 mph 65.1% 0 in
00:19 63.5 °F 52 °F 30.2 in NNE 2.9 mph 5.9 mph 66% 0 in
00:24 63.3 °F 51.8 °F 30.2 in NNE 3.5 mph 6.2 mph 66% 0 in
00:29 63.3 °F 52 °F 30.2 in NNE 3.6 mph 5.9 mph 66.5% 0 in
00:34 63.1 °F 52 °F 30.2 in NNE 4 mph 5.8 mph 67% 0 in
00:39 63 °F 52 °F 30.2 in NE 4 mph 7.4 mph 67.5% 0 in
00:44 62.6 °F 52 °F 30.2 in NE 3.7 mph 6.9 mph 68.1% 0 in
00:49 62.4 °F 52 °F 30.2 in NNE 3.6 mph 5.9 mph 69% 0 in
00:54 62.2 °F 52 °F 30.2 in NNE 4 mph 5.2 mph 69.2% 0 in
00:59 62.1 °F 52.2 °F 30.2 in NE 4 mph 4.7 mph 70% 0 in
01:04 62.1 °F 52.2 °F 30.2 in NNE 2.4 mph 5.9 mph 70% 0 in
01:09 61.9 °F 52.2 °F 30.2 in NNE 2.4 mph 5.9 mph 70.4% 0 in
01:14 61.9 °F 52.3 °F 30.2 in NE 3 mph 5.8 mph 71% 0 in
01:19 61.9 °F 52.3 °F 30.2 in NE 3.1 mph 5.2 mph 71% 0 in
01:24 61.9 °F 52.3 °F 30.2 in NE 3.1 mph 3.5 mph 71% 0 in
01:29 61.9 °F 52.3 °F 30.2 in NE 3.1 mph 3.5 mph 71% 0 in
01:34 61.9 °F 52.3 °F 30.2 in NO 1.9 mph 3.5 mph 71% 0 in
01:39 61.9 °F 52.3 °F 30.2 in Oeste 1.8 mph 3.6 mph 71% 0 in
01:44 62.1 °F 52.5 °F 30.2 in OSO 2 mph 2.9 mph 71% 0 in
01:49 62.1 °F 52.5 °F 30.2 in OSO 2 mph 2.9 mph 71% 0 in
01:54 62.1 °F 52.3 °F 30.2 in OSO 1.5 mph 3.1 mph 70.7% 0 in
01:59 62.2 °F 52.3 °F 30.2 in OSO 1.4 mph 3.5 mph 70% 0 in
02:04 62.2 °F 52.3 °F 30.2 in OSO 2 mph 3.6 mph 70% 0 in
02:09 62.2 °F 52.3 °F 30.2 in OSO 2 mph 2.4 mph 70% 0 in
02:14 62.2 °F 52.3 °F 30.2 in OSO 1.8 mph 2.3 mph 70% 0 in
02:19 62.2 °F 52.3 °F 30.2 in OSO 1.8 mph 2.9 mph 70% 0 in
02:24 62.2 °F 52.3 °F 30.2 in OSO 0.2 mph 2.4 mph 70% 0 in
02:29 62.2 °F 52.3 °F 30.2 in Calm   2.4 mph 70% 0 in
02:34 62.2 °F 52.3 °F 30.2 in Sur 1.2 mph 3.6 mph 70% 0 in
02:39 62.2 °F 52.3 °F 30.2 in SE 1.4 mph 3.5 mph 70% 0 in
02:44 62.1 °F 52.2 °F 30.2 in SE 1.9 mph 2.4 mph 70% 0 in
02:49 62.1 °F 52.2 °F 30.2 in SE 2 mph 2.3 mph 70% 0 in
02:54 61.9 °F 52.3 °F 30.2 in SE 1.5 mph 2.3 mph 70.9% 0 in
02:59 61.9 °F 52.3 °F 30.2 in SE 1.4 mph 2.4 mph 71% 0 in
03:04 61.5 °F 52 °F 30.2 in SE 0.1 mph 2.4 mph 71% 0 in
03:09 61.3 °F 52 °F 30.2 in Calm   4.3 mph 71% 0 in
03:14 61.2 °F 51.8 °F 30.2 in ESE 1.6 mph 4.6 mph 71.4% 0 in
03:19 61 °F 51.8 °F 30.2 in SE 1.8 mph 3.5 mph 72% 0 in
03:24 60.8 °F 51.6 °F 30.1 in SE 2 mph 3.5 mph 72% 0 in
03:29 60.6 °F 51.6 °F 30.1 in SSE 2 mph 3.6 mph 72.2% 0 in
03:34 60.6 °F 52 °F 30.1 in SSE 1.8 mph 2.9 mph 73% 0 in
03:39 60.6 °F 52 °F 30.1 in SSE 1.8 mph 1.4 mph 73% 0 in
03:44 60.8 °F 52 °F 30.1 in SSE 0.2 mph 2.3 mph 73% 0 in
03:49 60.6 °F 52 °F 30.1 in Calm   4.6 mph 72.9% 0 in
03:54 60.6 °F 51.4 °F 30.1 in Este 1.3 mph 2.9 mph 72% 0 in
03:59 60.4 °F 51.3 °F 30.1 in Este 1.4 mph 3.5 mph 72% 0 in
04:04 60.3 °F 51.3 °F 30.1 in ESE 2 mph 2.4 mph 72.2% 0 in
04:09 60.1 °F 51.1 °F 30.1 in ESE 2 mph 3.5 mph 72.3% 0 in
04:14 59.9 °F 50.9 °F 30.1 in SE 1.8 mph 3.5 mph 72% 0 in
04:19 59.7 °F 50.7 °F 30.1 in SSE 1.8 mph 3.6 mph 72.2% 0 in
04:24 59.7 °F 51.1 °F 30.1 in Oeste 2.4 mph 3.5 mph 73% 0 in
04:29 59.7 °F 51.1 °F 30.1 in SSO 2.4 mph 3.6 mph 73% 0 in
04:34 59.7 °F 51.1 °F 30.1 in SSO 2.1 mph 4.6 mph 73% 0 in
04:39 59.9 °F 51.1 °F 30.1 in SO 2 mph 5.9 mph 72.8% 0 in
04:44 59.9 °F 50.7 °F 30.1 in SO 3 mph 5.8 mph 72% 0 in
04:49 59.7 °F 50.7 °F 30.1 in SO 3.1 mph 2.9 mph 72% 0 in
04:54 59.7 °F 50.7 °F 30.1 in SSE 2.1 mph 2.3 mph 72% 0 in
04:59 59.7 °F 50.9 °F 30.1 in SSE 2 mph 2.3 mph 72.8% 0 in
05:04 59.7 °F 51.1 °F 30.1 in SSE 0.1 mph 2.9 mph 73% 0 in
05:09 59.7 °F 51.1 °F 30.1 in Calm   3.5 mph 73% 0 in
05:14 59.5 °F 50.9 °F 30.1 in ESE 1.6 mph 4.6 mph 73% 0 in
05:19 59.4 °F 50.7 °F 30.1 in SE 1.8 mph 3.6 mph 73.4% 0 in
05:24 59 °F 50.5 °F 30.1 in SSE 2.3 mph 3.6 mph 74% 0 in
05:29 58.6 °F 50.7 °F 30.1 in SSE 2.4 mph 3.6 mph 75% 0 in
05:34 58.6 °F 50.7 °F 30.1 in Sur 2.4 mph 3.6 mph 75% 0 in
05:39 58.6 °F 50.7 °F 30.1 in Sur 2.4 mph 2.4 mph 75% 0 in
05:44 58.6 °F 50.9 °F 30.1 in Sur 1.9 mph 2.4 mph 75.7% 0 in
05:49 58.5 °F 50.9 °F 30.1 in Sur 1.8 mph 2.9 mph 76% 0 in
05:54 58.5 °F 50.9 °F 30.1 in Sur 1.4 mph 2.4 mph 76% 0 in
05:59 58.5 °F 50.9 °F 30.1 in Sur 1.4 mph 3.6 mph 76% 0 in
06:04 58.6 °F 51.1 °F 30.1 in SE 1.4 mph 3.6 mph 76% 0 in
06:08 58.6 °F 51.1 °F 30.1 in SSE 1.4 mph 4.3 mph 76% 0 in
06:14 58.5 °F 50.7 °F 30.1 in SSO 1.9 mph 4.7 mph 75.1% 0 in
06:19 58.5 °F 50.5 °F 30.1 in SSO 2 mph 5.8 mph 75% 0 in
06:24 58.5 °F 50.7 °F 30.1 in SSO 3.4 mph 4.6 mph 75% 0 in
06:29 58.6 °F 50.7 °F 30.1 in SSE 3.6 mph 3.5 mph 75% 0 in
06:34 58.6 °F 50.7 °F 30.1 in SSE 2.2 mph 4.6 mph 75% 0 in
06:39 58.5 °F 50.5 °F 30.1 in SSE 2 mph 4.6 mph 75% 0 in
06:44 58.5 °F 50.5 °F 30.1 in Sur 2 mph 4 mph 75% 0 in
06:49 58.3 °F 50.5 °F 30.1 in Sur 2 mph 4.6 mph 75% 0 in
06:54 58.3 °F 50.4 °F 30.1 in SSE 2 mph 2.4 mph 75% 0 in
06:59 58.3 °F 50.4 °F 30.1 in SSE 2 mph 2.3 mph 75% 0 in
07:04 57.9 °F 50.5 °F 30.1 in SSE 1.4 mph 2.9 mph 76% 0 in
07:09 57.7 °F 50.4 °F 30.1 in SSE 1.4 mph 2.9 mph 76.4% 0 in
07:14 57.6 °F 50.4 °F 30.1 in SSE 1.7 mph 2.3 mph 77% 0 in
07:19 57.6 °F 50.7 °F 30.1 in SSE 1.8 mph 1.2 mph 78% 0 in
07:24 57.6 °F 50.7 °F 30.1 in SSE 0.2 mph 3.5 mph 78% 0 in
07:29 57.6 °F 50.9 °F 30.1 in Calm   3.6 mph 78% 0 in
07:34 57.7 °F 50.9 °F 30.1 in OSO 1.7 mph 3.5 mph 78% 0 in
07:39 57.7 °F 51.1 °F 30.1 in OSO 2 mph 3.1 mph 78% 0 in
07:44 58.3 °F 51.3 °F 30.1 in NO 0.2 mph 3.5 mph 77.9% 0 in
07:49 58.5 °F 51.3 °F 30.1 in Calm   2.4 mph 77.3% 0 in
07:54 58.5 °F 51.3 °F 30.1 in NO 1.2 mph 2.4 mph 77% 0 in
07:59 58.6 °F 51.4 °F 30.1 in NO 1.4 mph 2.9 mph 76.9% 0 in
08:04 58.8 °F 51.4 °F 30.1 in NNO 1.4 mph 3.1 mph 76.8% 0 in
08:09 59.4 °F 52 °F 30.1 in NE 1.4 mph 3.6 mph 76.4% 0 in
08:14 59.7 °F 52 °F 30.1 in ENE 1.7 mph 3.6 mph 75.4% 0 in
08:19 60.1 °F 51.8 °F 30.1 in Sur 1.8 mph 4.6 mph 74.1% 0 in
08:24 60.3 °F 52 °F 30.1 in SO 1.8 mph 2.9 mph 74% 0 in
08:29 60.6 °F 52 °F 30.1 in SSE 1.8 mph 3.6 mph 73.2% 0 in
08:34 60.8 °F 52 °F 30.1 in SSE 1.8 mph 5.2 mph 72.8% 0 in
08:39 60.6 °F 51.8 °F 30.1 in SSE 1.8 mph 5.2 mph 72.6% 0 in
08:44 60.6 °F 52.2 °F 30.1 in SSE 2.9 mph 6.4 mph 73.4% 0 in
08:49 60.6 °F 52.3 °F 30.2 in SSE 3.1 mph 6.9 mph 74% 0 in
08:54 60.6 °F 52.3 °F 30.2 in SSE 3.9 mph 6.9 mph 74% 0 in
08:59 60.6 °F 52.3 °F 30.2 in SSE 4 mph 6.9 mph 74% 0 in
09:04 60.6 °F 52.3 °F 30.2 in Sur 4.3 mph 6.9 mph 74% 0 in
09:09 60.8 °F 52.5 °F 30.2 in SSE 4.3 mph 5.9 mph 74.3% 0 in
09:14 61.2 °F 52.5 °F 30.2 in SSE 3.7 mph 5.9 mph 73.6% 0 in
09:19 61.3 °F 52.5 °F 30.2 in Sur 3.6 mph 5.8 mph 72.9% 0 in
09:24 61.5 °F 52.3 °F 30.2 in SSE 4 mph 4.7 mph 72% 0 in
09:29 61.9 °F 52.7 °F 30.2 in SSO 4 mph 5.2 mph 71.8% 0 in
09:34 62.2 °F 52.7 °F 30.2 in SE 3 mph 4.7 mph 71% 0 in
09:39 62.8 °F 53.1 °F 30.2 in SSO 2.9 mph 3.5 mph 70.8% 0 in
09:44 63.5 °F 53.1 °F 30.2 in SE 2.1 mph 5.2 mph 69% 0 in
09:49 64.4 °F 53.2 °F 30.2 in ESE 2 mph 4.6 mph 67.2% 0 in
09:54 65.1 °F 53.2 °F 30.2 in Este 2 mph 3.6 mph 65.8% 0 in
09:59 65.5 °F 53.1 °F 30.2 in Sur 2 mph 4.6 mph 64.1% 0 in
10:04 65.7 °F 52.7 °F 30.2 in SSE 2.4 mph 4.6 mph 63% 0 in
10:09 65.8 °F 52.7 °F 30.2 in SSO 2.4 mph 4.6 mph 62.8% 0 in
10:14 65.8 °F 52.7 °F 30.2 in Oeste 2.1 mph 4.6 mph 62.4% 0 in
10:19 66.4 °F 53.1 °F 30.2 in ONO 2 mph 4.6 mph 62% 0 in
10:24 67.1 °F 52.9 °F 30.2 in Este 1.8 mph 4.6 mph 60.5% 0 in
10:29 67.5 °F 52.7 °F 30.2 in Este 1.8 mph 2.4 mph 59% 0 in
10:34 67.8 °F 52.9 °F 30.2 in NE 1.4 mph 4.6 mph 58.9% 0 in
10:39 68.4 °F 52.7 °F 30.2 in NO 1.4 mph 3.6 mph 57.3% 0 in
10:44 68.7 °F 52.9 °F 30.2 in North 1.9 mph 5.8 mph 57.1% 0 in
10:49 69.1 °F 52.7 °F 30.2 in NO 2 mph 3.5 mph 56.1% 0 in
10:54 69.3 °F 52.9 °F 30.1 in North 2 mph 6.2 mph 55.8% 0 in
10:59 69.6 °F 52.7 °F 30.1 in NNO 2 mph 4.7 mph 55% 0 in
11:04 70 °F 53.2 °F 30.1 in North 2.4 mph 6.4 mph 55.1% 0 in
11:09 70.3 °F 52.7 °F 30.1 in North 2.4 mph 6.9 mph 53.6% 0 in
11:14 70.3 °F 52.3 °F 30.1 in NE 2.9 mph 6.2 mph 52.6% 0 in
11:19 70.5 °F 52.7 °F 30.1 in NE 2.9 mph 6.9 mph 53.1% 0 in
11:24 70.7 °F 52.9 °F 30.1 in NNE 3.5 mph 6.9 mph 53.3% 0 in
11:29 71.1 °F 52.9 °F 30.1 in NNE 3.6 mph 7.4 mph 52.8% 0 in
11:34 71.2 °F 52.3 °F 30.1 in NE 3.6 mph 8.5 mph 51.3% 0 in
11:39 71.6 °F 52.2 °F 30.1 in NE 3.6 mph 8.1 mph 50.6% 0 in
11:44 72 °F 52.2 °F 30.1 in NNE 3.6 mph 9.2 mph 50% 0 in
11:49 72 °F 52.3 °F 30.1 in NE 3.6 mph 9.2 mph 50% 0 in
11:54 72.1 °F 52.3 °F 30.1 in NNE 4.6 mph 8.1 mph 49.8% 0 in
11:59 72.3 °F 52.5 °F 30.1 in NE 4.7 mph 6.9 mph 49.8% 0 in
12:04 72.9 °F 52.5 °F 30.1 in NNO 3.7 mph 7.6 mph 48.9% 0 in
12:09 73 °F 52.7 °F 30.1 in North 3.6 mph 8.5 mph 48.6% 0 in
12:14 73.2 °F 52.7 °F 30.1 in Este 4.2 mph 8.1 mph 48.5% 0 in
12:19 73.6 °F 52.7 °F 30.1 in SE 4.3 mph 6.9 mph 48% 0 in
12:24 73.8 °F 52.9 °F 30.1 in NE 4 mph 8.5 mph 48% 0 in
12:29 73.9 °F 52.9 °F 30.1 in North 4 mph 8.1 mph 48% 0 in
12:34 74.1 °F 53.2 °F 30.1 in NNE 4 mph 8.5 mph 48% 0 in
12:39 74.7 °F 53.6 °F 30.1 in ONO 4 mph 8.1 mph 47.9% 0 in
12:44 74.8 °F 53.2 °F 30.1 in NNE 4 mph 8.5 mph 46.7% 0 in
12:49 75.2 °F 53.1 °F 30.1 in NNE 4 mph 6.2 mph 46.3% 0 in
12:54 75.6 °F 53.6 °F 30.1 in North 3.2 mph 9.2 mph 46.5% 0 in
12:59 75.9 °F 53.6 °F 30.1 in NE 3.1 mph 10.7 mph 45.9% 0 in
13:04 75.6 °F 53.2 °F 30.1 in NNE 5.1 mph 9.2 mph 45.8% 0 in
13:09 75.6 °F 53.6 °F 30.1 in North 5.2 mph 5.9 mph 46.5% 0 in
13:14 76.1 °F 53.6 °F 30.1 in ENE 4.1 mph 8.1 mph 45.5% 0 in
13:19 76.5 °F 53.1 °F 30.1 in North 4 mph 5.8 mph 44.3% 0 in
13:24 76.5 °F 52.9 °F 30.1 in ONO 3.2 mph 5.9 mph 44% 0 in
13:29 76.5 °F 52.9 °F 30.1 in Oeste 3.1 mph 5.8 mph 44% 0 in
13:34 76.5 °F 52.9 °F 30.1 in North 3.5 mph 6.4 mph 43.9% 0 in
13:39 76.8 °F 52.5 °F 30.1 in NE 3.6 mph 6.9 mph 42.9% 0 in
13:44 77.2 °F 52.5 °F 30.1 in Este 3.6 mph 8.1 mph 42.5% 0 in
13:49 77.4 °F 52.5 °F 30.1 in NNO 3.6 mph 8.1 mph 42.1% 0 in
13:54 77.7 °F 52.7 °F 30.1 in NNE 3.6 mph 12.3 mph 41.7% 0 in
13:59 78.1 °F 52 °F 30.1 in NE 3.6 mph 12.7 mph 40.3% 0 in
14:04 78.1 °F 51.6 °F 30.1 in NE 4.3 mph 11.5 mph 39.9% 0 in
14:09 78.1 °F 51.3 °F 30.1 in NNE 4.3 mph 9.2 mph 39.3% 0 in
14:14 78.3 °F 51.4 °F 30.1 in ESE 4.7 mph 8.1 mph 39.2% 0 in
14:19 78.3 °F 51.3 °F 30.1 in ENE 4.7 mph 6.2 mph 38.9% 0 in
14:24 78.4 °F 51.1 °F 30.1 in ENE 3.7 mph 10.4 mph 38.4% 0 in
14:29 78.4 °F 50.5 °F 30.1 in NE 3.6 mph 12.5 mph 37.9% 0 in
14:34 78.4 °F 50.5 °F 30.1 in NE 6.2 mph 12.7 mph 37.9% 0 in
14:39 78.8 °F 50.2 °F 30.1 in ENE 6.4 mph 11.2 mph 36.7% 0 in
14:44 79 °F 48.9 °F 30.1 in SE 4.9 mph 11.5 mph 35% 0 in
14:49 79 °F 48.6 °F 30.1 in SE 4.7 mph 13 mph 34.4% 0 in
14:54 79.3 °F 48.6 °F 30.1 in ESE 6.2 mph 11.5 mph 34% 0 in
14:59 79.3 °F 48.6 °F 30.1 in SE 6.4 mph 11.5 mph 34% 0 in
15:04 79.7 °F 48.7 °F 30.1 in ESE 5.2 mph 13.8 mph 34% 0 in
15:09 79.7 °F 48.7 °F 30.1 in ESE 5.2 mph 14 mph 34% 0 in
15:14 79.3 °F 48.7 °F 30.1 in ESE 7.1 mph 12.7 mph 34.3% 0 in
15:19 79.3 °F 48.7 °F 30.1 in SE 7.4 mph 11.5 mph 34.4% 0 in
15:24 79.2 °F 49.1 °F 30.1 in SE 6.1 mph 12.3 mph 35% 0 in
15:29 79.2 °F 49.6 °F 30.1 in SE 5.9 mph 13 mph 35.7% 0 in
15:34 79.3 °F 50.2 °F 30.1 in ESE 6.3 mph 14 mph 36.1% 0 in
15:39 79.2 °F 50.7 °F 30.1 in SE 6.4 mph 14.5 mph 36.9% 0 in
15:44 79 °F 51.1 °F 30.1 in SE 7.3 mph 15 mph 37.8% 0 in
15:49 78.8 °F 51.1 °F 30.1 in ESE 7.4 mph 13.8 mph 38% 0 in
15:54 79 °F 51.3 °F 30.1 in SE 7 mph 11.8 mph 38% 0 in
15:59 78.8 °F 50.4 °F 30.1 in ESE 6.9 mph 13.8 mph 37% 0 in
16:04 78.4 °F 50 °F 30.1 in ESE 8.4 mph 13 mph 37% 0 in
16:09 78.3 °F 49.8 °F 30.1 in Este 8.5 mph 13.8 mph 37% 0 in
16:14 78.4 °F 50 °F 30.1 in ESE 7.5 mph 9.7 mph 36.9% 0 in
16:19 79 °F 49.8 °F 30.1 in Este 7.4 mph 10.4 mph 36.1% 0 in
16:24 79 °F 49.8 °F 30.1 in Este 6.1 mph 11.5 mph 36% 0 in
16:29 79.2 °F 50.2 °F 30.1 in ENE 5.9 mph 13 mph 36.3% 0 in
16:34 79.2 °F 49.6 °F 30.1 in ENE 5.9 mph 13.8 mph 35.5% 0 in
16:39 79 °F 49.3 °F 30.1 in NE 5.9 mph 15 mph 35.4% 0 in
16:44 78.4 °F 49.1 °F 30.1 in ENE 7.3 mph 13.8 mph 35.7% 0 in
16:49 78.8 °F 49.6 °F 30.1 in NE 7.4 mph 13 mph 36% 0 in
16:54 78.8 °F 49.5 °F 30.1 in NE 7 mph 15.2 mph 35.8% 0 in
16:59 78.4 °F 49.3 °F 30.1 in NE 6.9 mph 15 mph 35.8% 0 in
17:04 78.6 °F 49.1 °F 30.1 in NE 8.6 mph 13.8 mph 35.7% 0 in
17:09 78.3 °F 48.9 °F 30.1 in NE 8.7 mph 18.5 mph 35.7% 0 in
17:14 78.1 °F 48.9 °F 30.1 in NE 9.1 mph 18.4 mph 36% 0 in
17:19 77.7 °F 48.9 °F 30.1 in NE 9.2 mph 17.3 mph 36.2% 0 in
17:24 77.5 °F 49.1 °F 30.1 in NE 9.2 mph 17.3 mph 36.9% 0 in
17:29 77.5 °F 49.1 °F 30.1 in NE 9.2 mph 17.3 mph 36.9% 0 in
17:34 77.5 °F 49.1 °F 30.1 in NNE 9.6 mph 17.3 mph 37% 0 in
17:39 77.5 °F 48.6 °F 30.1 in NE 9.7 mph 16.1 mph 36.1% 0 in
17:44 77.5 °F 48.6 °F 30.1 in NNE 8.6 mph 16.1 mph 36.1% 0 in
17:49 77.5 °F 48.6 °F 30.1 in NE 8.5 mph 15 mph 36% 0 in
17:54 77.4 °F 48.4 °F 30.1 in NE 9.1 mph 17.3 mph 36% 0 in
17:59 77.4 °F 48.4 °F 30.1 in NE 9.2 mph 13.8 mph 36% 0 in
18:04 77.4 °F 48.2 °F 30.1 in NE 8.5 mph 11.5 mph 35.9% 0 in
18:09 77.5 °F 48.4 °F 30.1 in NE 8.5 mph 14 mph 35.9% 0 in
18:14 77.5 °F 47.7 °F 30.1 in NE 6.6 mph 13.8 mph 34.9% 0 in
18:19 77.4 °F 47.5 °F 30.1 in NE 6.4 mph 13 mph 34.8% 0 in
18:24 77.2 °F 47.7 °F 30.1 in NE 8.3 mph 16.1 mph 35.3% 0 in
18:29 77.2 °F 48.2 °F 30.1 in NE 8.5 mph 13.8 mph 36% 0 in
18:34 76.8 °F 48.2 °F 30.1 in NE 7.7 mph 13.8 mph 36.4% 0 in
18:39 76.8 °F 48.2 °F 30.1 in NE 7.6 mph 16.1 mph 36.5% 0 in
18:44 76.6 °F 47.8 °F 30.1 in NE 8 mph 13 mph 36.1% 0 in
18:49 76.6 °F 47.7 °F 30.1 in NE 8.1 mph 13 mph 36% 0 in
18:54 76.6 °F 48.2 °F 30.1 in NE 7.5 mph 12.7 mph 36.7% 0 in
18:59 76.8 °F 48.4 °F 30.1 in NE 7.4 mph 11.8 mph 36.8% 0 in
19:04 76.6 °F 48 °F 30.1 in ENE 6 mph 11.5 mph 36.5% 0 in
19:09 76.6 °F 47.7 °F 30.1 in NE 5.9 mph 11.5 mph 36% 0 in
19:14 76.5 °F 48 °F 30.1 in NE 5.9 mph 11.8 mph 36.5% 0 in
19:19 76.5 °F 47.8 °F 30.1 in NE 5.9 mph 13.5 mph 36.6% 0 in
19:24 76.1 °F 47.8 °F 30.1 in NE 6.2 mph 13.8 mph 37% 0 in
19:29 75.7 °F 47.7 °F 30.1 in NE 6.2 mph 11.8 mph 37% 0 in
19:34 75.6 °F 47.8 °F 30.1 in NE 6.4 mph 13.8 mph 37.5% 0 in
19:39 75.2 °F 47.8 °F 30.1 in NE 6.4 mph 11.8 mph 38% 0 in
19:44 75 °F 48 °F 30.1 in NE 6.8 mph 13.8 mph 38.4% 0 in
19:49 74.8 °F 48.2 °F 30.1 in NE 6.9 mph 11.5 mph 39% 0 in
19:54 74.7 °F 48.4 °F 30.1 in NE 6.5 mph 11.4 mph 39.4% 0 in
19:59 74.5 °F 48.4 °F 30.1 in NE 6.4 mph 13 mph 39.8% 0 in
20:04 74.1 °F 48.2 °F 30.1 in NE 5.9 mph 12.5 mph 40% 0 in
20:09 73.9 °F 48.2 °F 30.1 in NE 5.9 mph 12.7 mph 40.2% 0 in
20:14 73.8 °F 48.6 °F 30.1 in NE 6.3 mph 11.5 mph 41% 0 in
20:19 73.4 °F 48.4 °F 30.1 in NE 6.4 mph 11.5 mph 41% 0 in
20:24 73 °F 48 °F 30.1 in NE 6.4 mph 11.8 mph 41% 0 in
20:29 72.9 °F 48.4 °F 30.1 in NE 6.4 mph 11.2 mph 42% 0 in
20:34 72.7 °F 48.9 °F 30.1 in NE 6.4 mph 11.5 mph 43.2% 0 in
20:39 72.1 °F 49.3 °F 30.1 in NE 6.4 mph 11.8 mph 44.2% 0 in
20:44 72 °F 49.6 °F 30.1 in NE 6.4 mph 13.8 mph 45.3% 0 in
20:49 71.4 °F 49.8 °F 30.1 in NE 6.4 mph 10.4 mph 46.5% 0 in
20:54 71.1 °F 50.4 °F 30.1 in NE 6.8 mph 10.4 mph 47.8% 0 in
20:59 70.7 °F 50.2 °F 30.1 in NE 6.9 mph 11.2 mph 48.4% 0 in
21:04 70.3 °F 49.6 °F 30.1 in NE 6.2 mph 11.5 mph 48% 0 in
21:09 70 °F 49.6 °F 30.1 in NE 6.2 mph 11.5 mph 48.4% 0 in
21:14 69.6 °F 49.6 °F 30.1 in NE 6.4 mph 11.5 mph 49.2% 0 in
21:19 69.3 °F 50.2 °F 30.1 in NE 6.4 mph 10.4 mph 50.5% 0 in
21:24 69.1 °F 50.5 °F 30.1 in NNE 6.9 mph 9.2 mph 51.9% 0 in
21:29 68.5 °F 51.3 °F 30.1 in NNE 6.9 mph 10.4 mph 53.8% 0 in
21:33 68.4 °F 52 °F 30.1 in NNE 6 mph 10.7 mph 55.9% 0 in
21:39 67.8 °F 53.1 °F 30.1 in NNE 5.9 mph 11.5 mph 59.5% 0 in
21:44 67.5 °F 54.1 °F 30.1 in NNE 6.3 mph 9.7 mph 62.3% 0 in
21:49 67.3 °F 55 °F 30.1 in NE 6.4 mph 8.1 mph 64.7% 0 in
21:54 66.9 °F 55.4 °F 30.1 in NE 6 mph 8.1 mph 66.3% 0 in
21:59 66.7 °F 55.6 °F 30.1 in NNE 5.9 mph 7.6 mph 67.6% 0 in
22:04 66.4 °F 55.9 °F 30.1 in NE 5.2 mph 8.5 mph 69% 0 in
22:09 66 °F 56.1 °F 30.1 in NE 5.2 mph 9.7 mph 70.4% 0 in
22:14 65.7 °F 56.1 °F 30.1 in NNE 5.4 mph 9.2 mph 71.1% 0 in
22:19 65.5 °F 56.1 °F 30.1 in NNE 5.4 mph 8.1 mph 72% 0 in
22:24 65.1 °F 56.1 °F 30.1 in NNE 5.2 mph 8.1 mph 73% 0 in
22:29 64.9 °F 56.3 °F 30.1 in NNE 5.2 mph 8.1 mph 73.6% 0 in
22:34 64.8 °F 56.5 °F 30.1 in NNE 4.7 mph 8.1 mph 74.3% 0 in
22:39 64.8 °F 56.5 °F 30.1 in NNE 4.7 mph 8.5 mph 75% 0 in
22:44 64.6 °F 56.8 °F 30.1 in NNE 4.7 mph 9.2 mph 76% 0 in
22:49 64.6 °F 56.8 °F 30.1 in NE 4.7 mph 9.7 mph 76.6% 0 in
22:54 64.4 °F 57 °F 30.1 in NE 6 mph 9.2 mph 77% 0 in
22:59 64.2 °F 57.2 °F 30.1 in NE 6.2 mph 9.2 mph 77.5% 0 in
23:04 64.2 °F 57.2 °F 30.1 in NE 5.4 mph 8.1 mph 78% 0 in
23:09 64.2 °F 57.2 °F 30.1 in NE 5.4 mph 6.9 mph 78% 0 in
23:14 64 °F 57.4 °F 30.1 in NE 4.4 mph 7.4 mph 78.5% 0 in
23:16 64 °F 57.4 °F 30.1 in NNE 4.3 mph 6.9 mph 79% 0 in
Murcia-Puente Tocinos, Espa?a
Compliments of Weather Underground - 3 mb

La estación de MeteoMurcia.com, publica sus datos en los siguientes proyectos:

Weather Underground PWS IMURCIAP2 Meteoclimatic www.awekas.at

W3Counter
Web Analytics